sensor_id;sensor_type;location;lat;lon;timestamp;P1;durP1;ratioP1;P2;durP2;ratioP2
65130;SDS011;51709;54.912;8.316;2023-12-20T00:04:41;12.48;;;2.65;;
65130;SDS011;51709;54.912;8.316;2023-12-20T00:10:02;12.35;;;3.70;;
65130;SDS011;51709;54.912;8.316;2023-12-20T00:15:23;18.80;;;3.55;;
65130;SDS011;51709;54.912;8.316;2023-12-20T00:20:43;16.40;;;2.92;;
65130;SDS011;51709;54.912;8.316;2023-12-20T00:26:04;18.48;;;2.90;;
65130;SDS011;51709;54.912;8.316;2023-12-20T00:31:24;26.27;;;3.67;;
65130;SDS011;51709;54.912;8.316;2023-12-20T00:36:45;14.80;;;3.30;;
65130;SDS011;51709;54.912;8.316;2023-12-20T00:42:06;21.00;;;3.00;;
65130;SDS011;51709;54.912;8.316;2023-12-20T00:47:26;9.75;;;2.95;;
65130;SDS011;51709;54.912;8.316;2023-12-20T00:52:47;24.25;;;4.55;;
65130;SDS011;51709;54.912;8.316;2023-12-20T00:58:08;16.70;;;3.92;;
65130;SDS011;51709;54.912;8.316;2023-12-20T01:03:29;17.40;;;2.63;;
65130;SDS011;51709;54.912;8.316;2023-12-20T01:08:49;20.85;;;3.28;;
65130;SDS011;51709;54.912;8.316;2023-12-20T01:14:10;13.27;;;2.90;;
65130;SDS011;51709;54.912;8.316;2023-12-20T01:19:31;28.05;;;4.75;;
65130;SDS011;51709;54.912;8.316;2023-12-20T01:24:52;21.63;;;4.43;;
65130;SDS011;51709;54.912;8.316;2023-12-20T01:30:13;18.67;;;3.17;;
65130;SDS011;51709;54.912;8.316;2023-12-20T01:35:35;32.00;;;3.75;;
65130;SDS011;51709;54.912;8.316;2023-12-20T01:40:55;24.58;;;4.55;;
65130;SDS011;51709;54.912;8.316;2023-12-20T01:46:16;18.17;;;3.58;;
65130;SDS011;51709;54.912;8.316;2023-12-20T01:51:37;31.63;;;4.47;;
65130;SDS011;51709;54.912;8.316;2023-12-20T01:56:59;18.85;;;3.25;;
65130;SDS011;51709;54.912;8.316;2023-12-20T02:02:19;16.45;;;3.15;;
65130;SDS011;51709;54.912;8.316;2023-12-20T02:07:40;13.52;;;3.55;;
65130;SDS011;51709;54.912;8.316;2023-12-20T02:13:01;34.13;;;4.57;;
65130;SDS011;51709;54.912;8.316;2023-12-20T02:18:21;21.52;;;3.33;;
65130;SDS011;51709;54.912;8.316;2023-12-20T02:23:43;21.88;;;5.13;;
65130;SDS011;51709;54.912;8.316;2023-12-20T02:29:03;27.52;;;3.55;;
65130;SDS011;51709;54.912;8.316;2023-12-20T02:34:24;14.48;;;2.92;;
65130;SDS011;51709;54.912;8.316;2023-12-20T02:39:44;39.88;;;5.22;;
65130;SDS011;51709;54.912;8.316;2023-12-20T02:45:06;15.32;;;3.15;;
65130;SDS011;51709;54.912;8.316;2023-12-20T02:50:27;23.83;;;3.67;;
65130;SDS011;51709;54.912;8.316;2023-12-20T02:55:47;9.48;;;3.88;;
65130;SDS011;51709;54.912;8.316;2023-12-20T03:01:08;16.98;;;2.30;;
65130;SDS011;51709;54.912;8.316;2023-12-20T03:06:28;11.73;;;2.38;;
65130;SDS011;51709;54.912;8.316;2023-12-20T03:11:49;10.25;;;1.90;;
65130;SDS011;51709;54.912;8.316;2023-12-20T03:17:10;14.93;;;3.47;;
65130;SDS011;51709;54.912;8.316;2023-12-20T03:22:30;26.08;;;3.30;;
65130;SDS011;51709;54.912;8.316;2023-12-20T03:27:51;13.65;;;2.80;;
65130;SDS011;51709;54.912;8.316;2023-12-20T03:33:12;18.85;;;2.60;;
65130;SDS011;51709;54.912;8.316;2023-12-20T03:38:32;17.38;;;3.70;;
65130;SDS011;51709;54.912;8.316;2023-12-20T03:43:53;28.65;;;4.57;;
65130;SDS011;51709;54.912;8.316;2023-12-20T03:49:14;26.73;;;4.60;;
65130;SDS011;51709;54.912;8.316;2023-12-20T03:54:35;21.85;;;3.78;;
65130;SDS011;51709;54.912;8.316;2023-12-20T03:59:55;22.30;;;2.85;;
65130;SDS011;51709;54.912;8.316;2023-12-20T04:05:16;30.10;;;4.60;;
65130;SDS011;51709;54.912;8.316;2023-12-20T04:10:36;22.95;;;3.63;;
65130;SDS011;51709;54.912;8.316;2023-12-20T04:15:57;8.13;;;1.75;;
65130;SDS011;51709;54.912;8.316;2023-12-20T04:21:18;26.17;;;3.92;;
65130;SDS011;51709;54.912;8.316;2023-12-20T04:26:39;21.38;;;5.40;;
65130;SDS011;51709;54.912;8.316;2023-12-20T04:32:00;11.32;;;2.13;;
65130;SDS011;51709;54.912;8.316;2023-12-20T04:37:21;5.45;;;2.15;;
65130;SDS011;51709;54.912;8.316;2023-12-20T04:42:42;13.35;;;2.40;;
65130;SDS011;51709;54.912;8.316;2023-12-20T04:48:02;22.10;;;3.67;;
65130;SDS011;51709;54.912;8.316;2023-12-20T04:53:24;22.25;;;4.07;;
65130;SDS011;51709;54.912;8.316;2023-12-20T04:58:45;33.33;;;3.88;;
65130;SDS011;51709;54.912;8.316;2023-12-20T05:04:05;17.90;;;3.10;;
65130;SDS011;51709;54.912;8.316;2023-12-20T05:09:26;15.50;;;3.20;;
65130;SDS011;51709;54.912;8.316;2023-12-20T05:14:47;24.73;;;5.60;;
65130;SDS011;51709;54.912;8.316;2023-12-20T05:20:08;30.02;;;4.43;;
65130;SDS011;51709;54.912;8.316;2023-12-20T05:25:29;17.90;;;3.65;;
65130;SDS011;51709;54.912;8.316;2023-12-20T05:30:49;18.15;;;3.63;;
65130;SDS011;51709;54.912;8.316;2023-12-20T05:36:10;23.52;;;4.40;;
65130;SDS011;51709;54.912;8.316;2023-12-20T05:41:34;16.73;;;2.60;;
65130;SDS011;51709;54.912;8.316;2023-12-20T05:46:54;30.77;;;4.47;;
65130;SDS011;51709;54.912;8.316;2023-12-20T05:52:15;31.08;;;6.10;;
65130;SDS011;51709;54.912;8.316;2023-12-20T05:57:35;27.52;;;5.47;;
65130;SDS011;51709;54.912;8.316;2023-12-20T06:02:56;26.33;;;5.60;;
65130;SDS011;51709;54.912;8.316;2023-12-20T06:08:16;23.17;;;4.53;;
65130;SDS011;51709;54.912;8.316;2023-12-20T06:13:37;20.08;;;4.07;;
65130;SDS011;51709;54.912;8.316;2023-12-20T06:18:58;14.63;;;4.00;;
65130;SDS011;51709;54.912;8.316;2023-12-20T06:24:18;19.27;;;3.72;;
65130;SDS011;51709;54.912;8.316;2023-12-20T06:29:39;18.70;;;3.60;;
65130;SDS011;51709;54.912;8.316;2023-12-20T06:35:02;18.08;;;3.25;;
65130;SDS011;51709;54.912;8.316;2023-12-20T06:40:25;32.42;;;4.18;;
65130;SDS011;51709;54.912;8.316;2023-12-20T06:45:46;18.38;;;4.40;;
65130;SDS011;51709;54.912;8.316;2023-12-20T06:51:06;19.58;;;2.88;;
65130;SDS011;51709;54.912;8.316;2023-12-20T06:56:27;13.23;;;2.33;;
65130;SDS011;51709;54.912;8.316;2023-12-20T07:01:48;12.73;;;2.20;;
65130;SDS011;51709;54.912;8.316;2023-12-20T07:07:09;12.52;;;2.83;;
65130;SDS011;51709;54.912;8.316;2023-12-20T07:12:30;9.18;;;1.23;;
65130;SDS011;51709;54.912;8.316;2023-12-20T07:17:51;10.52;;;2.50;;
65130;SDS011;51709;54.912;8.316;2023-12-20T07:23:12;17.13;;;2.80;;
65130;SDS011;51709;54.912;8.316;2023-12-20T07:28:33;14.30;;;2.28;;
65130;SDS011;51709;54.912;8.316;2023-12-20T07:33:54;10.80;;;2.42;;
65130;SDS011;51709;54.912;8.316;2023-12-20T07:39:14;15.40;;;2.70;;
65130;SDS011;51709;54.912;8.316;2023-12-20T07:44:35;10.70;;;2.40;;
65130;SDS011;51709;54.912;8.316;2023-12-20T07:49:56;19.58;;;3.83;;
65130;SDS011;51709;54.912;8.316;2023-12-20T07:55:17;14.25;;;2.70;;
65130;SDS011;51709;54.912;8.316;2023-12-20T08:00:37;16.65;;;2.50;;
65130;SDS011;51709;54.912;8.316;2023-12-20T08:05:58;15.98;;;2.20;;
65130;SDS011;51709;54.912;8.316;2023-12-20T08:11:20;7.47;;;1.45;;
65130;SDS011;51709;54.912;8.316;2023-12-20T08:16:41;30.50;;;3.95;;
65130;SDS011;51709;54.912;8.316;2023-12-20T08:22:02;12.73;;;1.88;;
65130;SDS011;51709;54.912;8.316;2023-12-20T08:27:22;15.68;;;2.30;;
65130;SDS011;51709;54.912;8.316;2023-12-20T08:32:43;10.30;;;2.17;;
65130;SDS011;51709;54.912;8.316;2023-12-20T08:38:04;10.30;;;3.17;;
65130;SDS011;51709;54.912;8.316;2023-12-20T08:43:25;19.02;;;2.90;;
65130;SDS011;51709;54.912;8.316;2023-12-20T08:48:47;2.10;;;0.90;;
65130;SDS011;51709;54.912;8.316;2023-12-20T08:54:07;13.77;;;2.55;;
65130;SDS011;51709;54.912;8.316;2023-12-20T08:59:28;13.77;;;3.38;;
65130;SDS011;51709;54.912;8.316;2023-12-20T09:04:49;20.27;;;2.88;;
65130;SDS011;51709;54.912;8.316;2023-12-20T09:10:09;19.58;;;3.40;;
65130;SDS011;51709;54.912;8.316;2023-12-20T09:15:30;22.73;;;3.42;;
65130;SDS011;51709;54.912;8.316;2023-12-20T09:20:54;21.73;;;2.45;;
65130;SDS011;51709;54.912;8.316;2023-12-20T09:26:15;30.02;;;4.95;;
65130;SDS011;51709;54.912;8.316;2023-12-20T09:31:36;35.80;;;4.35;;
65130;SDS011;51709;54.912;8.316;2023-12-20T09:36:57;19.80;;;3.90;;
65130;SDS011;51709;54.912;8.316;2023-12-20T09:42:21;26.27;;;4.00;;
65130;SDS011;51709;54.912;8.316;2023-12-20T09:47:49;14.90;;;2.00;;
65130;SDS011;51709;54.912;8.316;2023-12-20T09:53:11;11.55;;;2.08;;
65130;SDS011;51709;54.912;8.316;2023-12-20T09:58:36;6.03;;;1.90;;
65130;SDS011;51709;54.912;8.316;2023-12-20T10:03:58;26.05;;;3.92;;
65130;SDS011;51709;54.912;8.316;2023-12-20T10:09:21;27.60;;;3.50;;
65130;SDS011;51709;54.912;8.316;2023-12-20T10:14:42;21.25;;;5.20;;
65130;SDS011;51709;54.912;8.316;2023-12-20T10:20:03;13.32;;;3.63;;
65130;SDS011;51709;54.912;8.316;2023-12-20T10:25:30;19.95;;;3.53;;
65130;SDS011;51709;54.912;8.316;2023-12-20T10:30:53;17.67;;;3.53;;
65130;SDS011;51709;54.912;8.316;2023-12-20T10:36:18;23.20;;;5.35;;
65130;SDS011;51709;54.912;8.316;2023-12-20T10:41:38;15.95;;;3.55;;
65130;SDS011;51709;54.912;8.316;2023-12-20T10:47:02;19.05;;;5.60;;
65130;SDS011;51709;54.912;8.316;2023-12-20T10:52:24;35.58;;;4.47;;
65130;SDS011;51709;54.912;8.316;2023-12-20T10:57:46;31.25;;;5.43;;
65130;SDS011;51709;54.912;8.316;2023-12-20T11:03:11;21.65;;;4.47;;
65130;SDS011;51709;54.912;8.316;2023-12-20T11:08:36;24.75;;;4.47;;
65130;SDS011;51709;54.912;8.316;2023-12-20T11:14:18;31.08;;;5.78;;
65130;SDS011;51709;54.912;8.316;2023-12-20T11:25:13;16.60;;;3.33;;
65130;SDS011;51709;54.912;8.316;2023-12-20T11:30:41;15.55;;;4.22;;
65130;SDS011;51709;54.912;8.316;2023-12-20T11:36:03;20.10;;;5.43;;
65130;SDS011;51709;54.912;8.316;2023-12-20T11:41:24;12.98;;;4.20;;
65130;SDS011;51709;54.912;8.316;2023-12-20T11:46:46;19.48;;;5.70;;
65130;SDS011;51709;54.912;8.316;2023-12-20T11:52:06;14.00;;;4.32;;
65130;SDS011;51709;54.912;8.316;2023-12-20T11:57:27;22.55;;;4.63;;
65130;SDS011;51709;54.912;8.316;2023-12-20T12:02:55;20.92;;;5.10;;
65130;SDS011;51709;54.912;8.316;2023-12-20T12:08:19;14.75;;;4.70;;
65130;SDS011;51709;54.912;8.316;2023-12-20T12:13:40;15.50;;;4.63;;
65130;SDS011;51709;54.912;8.316;2023-12-20T12:19:00;24.73;;;4.20;;
65130;SDS011;51709;54.912;8.316;2023-12-20T12:24:21;21.63;;;4.78;;
65130;SDS011;51709;54.912;8.316;2023-12-20T12:30:00;28.98;;;5.55;;
65130;SDS011;51709;54.912;8.316;2023-12-20T12:35:24;18.70;;;4.13;;
65130;SDS011;51709;54.912;8.316;2023-12-20T12:40:45;22.52;;;5.90;;
65130;SDS011;51709;54.912;8.316;2023-12-20T12:46:06;13.73;;;5.13;;
65130;SDS011;51709;54.912;8.316;2023-12-20T12:51:27;23.85;;;5.20;;
65130;SDS011;51709;54.912;8.316;2023-12-20T12:56:48;20.73;;;5.28;;
65130;SDS011;51709;54.912;8.316;2023-12-20T13:02:09;29.83;;;5.55;;
65130;SDS011;51709;54.912;8.316;2023-12-20T13:07:30;18.83;;;5.00;;
65130;SDS011;51709;54.912;8.316;2023-12-20T13:12:51;20.25;;;5.10;;
65130;SDS011;51709;54.912;8.316;2023-12-20T13:18:11;34.20;;;5.70;;
65130;SDS011;51709;54.912;8.316;2023-12-20T13:23:32;24.23;;;4.53;;
65130;SDS011;51709;54.912;8.316;2023-12-20T13:28:55;20.38;;;4.43;;
65130;SDS011;51709;54.912;8.316;2023-12-20T13:34:16;33.22;;;7.22;;
65130;SDS011;51709;54.912;8.316;2023-12-20T13:39:37;19.73;;;5.18;;
65130;SDS011;51709;54.912;8.316;2023-12-20T13:44:58;24.75;;;6.55;;
65130;SDS011;51709;54.912;8.316;2023-12-20T13:50:19;27.23;;;5.60;;
65130;SDS011;51709;54.912;8.316;2023-12-20T13:55:40;35.40;;;6.28;;
65130;SDS011;51709;54.912;8.316;2023-12-20T14:01:00;30.95;;;4.93;;
65130;SDS011;51709;54.912;8.316;2023-12-20T14:06:21;17.85;;;4.07;;
65130;SDS011;51709;54.912;8.316;2023-12-20T14:11:41;34.75;;;5.75;;
65130;SDS011;51709;54.912;8.316;2023-12-20T14:17:03;33.00;;;6.70;;
65130;SDS011;51709;54.912;8.316;2023-12-20T14:22:25;37.28;;;6.85;;
65130;SDS011;51709;54.912;8.316;2023-12-20T14:27:46;35.38;;;6.15;;
65130;SDS011;51709;54.912;8.316;2023-12-20T14:33:07;13.20;;;3.17;;
65130;SDS011;51709;54.912;8.316;2023-12-20T14:38:28;10.93;;;3.35;;
65130;SDS011;51709;54.912;8.316;2023-12-20T14:43:48;23.92;;;5.28;;
65130;SDS011;51709;54.912;8.316;2023-12-20T14:49:09;15.35;;;4.55;;
65130;SDS011;51709;54.912;8.316;2023-12-20T14:54:30;19.13;;;5.60;;
65130;SDS011;51709;54.912;8.316;2023-12-20T14:59:50;23.52;;;5.70;;
65130;SDS011;51709;54.912;8.316;2023-12-20T15:05:11;28.08;;;5.53;;
65130;SDS011;51709;54.912;8.316;2023-12-20T15:10:32;30.13;;;4.60;;
65130;SDS011;51709;54.912;8.316;2023-12-20T15:15:53;15.90;;;5.18;;
65130;SDS011;51709;54.912;8.316;2023-12-20T15:21:14;20.40;;;5.63;;
65130;SDS011;51709;54.912;8.316;2023-12-20T15:26:37;21.52;;;4.68;;
65130;SDS011;51709;54.912;8.316;2023-12-20T15:31:58;18.17;;;5.53;;
65130;SDS011;51709;54.912;8.316;2023-12-20T15:37:19;23.52;;;5.38;;
65130;SDS011;51709;54.912;8.316;2023-12-20T15:42:40;14.63;;;4.43;;
65130;SDS011;51709;54.912;8.316;2023-12-20T15:48:01;29.70;;;5.20;;
65130;SDS011;51709;54.912;8.316;2023-12-20T15:53:24;25.85;;;3.92;;
65130;SDS011;51709;54.912;8.316;2023-12-20T15:58:45;14.02;;;4.32;;
65130;SDS011;51709;54.912;8.316;2023-12-20T16:04:08;22.60;;;4.45;;
65130;SDS011;51709;54.912;8.316;2023-12-20T16:09:29;11.43;;;3.55;;
65130;SDS011;51709;54.912;8.316;2023-12-20T16:14:50;20.95;;;3.17;;
65130;SDS011;51709;54.912;8.316;2023-12-20T16:20:10;15.80;;;3.58;;
65130;SDS011;51709;54.912;8.316;2023-12-20T16:25:32;15.88;;;3.08;;
65130;SDS011;51709;54.912;8.316;2023-12-20T16:30:53;10.02;;;2.25;;
65130;SDS011;51709;54.912;8.316;2023-12-20T16:36:16;14.10;;;2.53;;
65130;SDS011;51709;54.912;8.316;2023-12-20T16:41:37;5.60;;;1.80;;
65130;SDS011;51709;54.912;8.316;2023-12-20T16:46:57;11.82;;;1.67;;
65130;SDS011;51709;54.912;8.316;2023-12-20T16:52:19;13.95;;;1.92;;
65130;SDS011;51709;54.912;8.316;2023-12-20T16:57:39;14.00;;;2.78;;
65130;SDS011;51709;54.912;8.316;2023-12-20T17:03:00;17.85;;;3.25;;
65130;SDS011;51709;54.912;8.316;2023-12-20T17:08:21;17.38;;;2.45;;
65130;SDS011;51709;54.912;8.316;2023-12-20T17:13:42;10.73;;;3.40;;
65130;SDS011;51709;54.912;8.316;2023-12-20T17:19:03;15.27;;;2.85;;
65130;SDS011;51709;54.912;8.316;2023-12-20T17:24:24;27.95;;;4.07;;
65130;SDS011;51709;54.912;8.316;2023-12-20T17:29:44;16.85;;;3.00;;
65130;SDS011;51709;54.912;8.316;2023-12-20T17:35:06;19.58;;;3.45;;
65130;SDS011;51709;54.912;8.316;2023-12-20T17:40:27;18.77;;;2.85;;
65130;SDS011;51709;54.912;8.316;2023-12-20T17:45:48;16.90;;;2.13;;
65130;SDS011;51709;54.912;8.316;2023-12-20T17:51:10;11.90;;;2.67;;
65130;SDS011;51709;54.912;8.316;2023-12-20T17:56:31;23.75;;;3.47;;
65130;SDS011;51709;54.912;8.316;2023-12-20T18:01:51;38.47;;;4.22;;
65130;SDS011;51709;54.912;8.316;2023-12-20T18:07:12;23.10;;;2.70;;
65130;SDS011;51709;54.912;8.316;2023-12-20T18:12:33;10.32;;;3.17;;
65130;SDS011;51709;54.912;8.316;2023-12-20T18:17:54;24.83;;;3.60;;
65130;SDS011;51709;54.912;8.316;2023-12-20T18:23:15;18.40;;;3.10;;
65130;SDS011;51709;54.912;8.316;2023-12-20T18:28:36;15.98;;;3.50;;
65130;SDS011;51709;54.912;8.316;2023-12-20T18:33:57;24.45;;;2.58;;
65130;SDS011;51709;54.912;8.316;2023-12-20T18:39:18;13.15;;;3.35;;
65130;SDS011;51709;54.912;8.316;2023-12-20T18:44:39;16.08;;;3.03;;
65130;SDS011;51709;54.912;8.316;2023-12-20T18:49:59;20.23;;;2.83;;
65130;SDS011;51709;54.912;8.316;2023-12-20T18:55:25;27.02;;;3.22;;
65130;SDS011;51709;54.912;8.316;2023-12-20T19:00:46;17.77;;;3.30;;
65130;SDS011;51709;54.912;8.316;2023-12-20T19:06:07;13.55;;;2.17;;
65130;SDS011;51709;54.912;8.316;2023-12-20T19:11:29;13.10;;;3.00;;
65130;SDS011;51709;54.912;8.316;2023-12-20T19:16:49;16.50;;;3.72;;
65130;SDS011;51709;54.912;8.316;2023-12-20T19:22:11;20.30;;;2.50;;
65130;SDS011;51709;54.912;8.316;2023-12-20T19:27:32;15.57;;;3.95;;
65130;SDS011;51709;54.912;8.316;2023-12-20T19:32:52;12.20;;;2.47;;
65130;SDS011;51709;54.912;8.316;2023-12-20T19:38:13;15.32;;;2.88;;
65130;SDS011;51709;54.912;8.316;2023-12-20T19:43:34;13.27;;;2.70;;
65130;SDS011;51709;54.912;8.316;2023-12-20T19:48:54;23.63;;;2.85;;
65130;SDS011;51709;54.912;8.316;2023-12-20T19:54:16;25.48;;;3.25;;
65130;SDS011;51709;54.912;8.316;2023-12-20T19:59:37;15.35;;;3.47;;
65130;SDS011;51709;54.912;8.316;2023-12-20T20:04:59;9.00;;;2.38;;
65130;SDS011;51709;54.912;8.316;2023-12-20T20:10:20;11.90;;;2.92;;
65130;SDS011;51709;54.912;8.316;2023-12-20T20:15:41;27.35;;;3.10;;
65130;SDS011;51709;54.912;8.316;2023-12-20T20:21:02;7.78;;;2.03;;
65130;SDS011;51709;54.912;8.316;2023-12-20T20:26:22;15.80;;;2.25;;
65130;SDS011;51709;54.912;8.316;2023-12-20T20:31:43;20.55;;;2.55;;
65130;SDS011;51709;54.912;8.316;2023-12-20T20:37:04;11.32;;;2.47;;
65130;SDS011;51709;54.912;8.316;2023-12-20T20:42:25;8.98;;;1.15;;
65130;SDS011;51709;54.912;8.316;2023-12-20T20:47:46;10.95;;;1.95;;
65130;SDS011;51709;54.912;8.316;2023-12-20T20:53:07;11.35;;;2.25;;
65130;SDS011;51709;54.912;8.316;2023-12-20T20:58:28;17.95;;;2.17;;
65130;SDS011;51709;54.912;8.316;2023-12-20T21:03:49;14.38;;;3.85;;
65130;SDS011;51709;54.912;8.316;2023-12-20T21:09:10;3.60;;;1.35;;
65130;SDS011;51709;54.912;8.316;2023-12-20T21:14:32;10.18;;;1.60;;
65130;SDS011;51709;54.912;8.316;2023-12-20T21:19:52;5.90;;;1.58;;
65130;SDS011;51709;54.912;8.316;2023-12-20T21:25:13;9.10;;;1.50;;
65130;SDS011;51709;54.912;8.316;2023-12-20T21:30:34;7.70;;;1.70;;
65130;SDS011;51709;54.912;8.316;2023-12-20T21:35:56;14.05;;;2.13;;
65130;SDS011;51709;54.912;8.316;2023-12-20T21:41:18;13.05;;;2.42;;
65130;SDS011;51709;54.912;8.316;2023-12-20T21:46:43;18.00;;;2.45;;
65130;SDS011;51709;54.912;8.316;2023-12-20T21:52:04;9.65;;;1.77;;
65130;SDS011;51709;54.912;8.316;2023-12-20T21:57:26;13.32;;;2.50;;
65130;SDS011;51709;54.912;8.316;2023-12-20T22:02:46;24.38;;;2.47;;
65130;SDS011;51709;54.912;8.316;2023-12-20T22:08:07;12.80;;;2.15;;
65130;SDS011;51709;54.912;8.316;2023-12-20T22:13:27;9.50;;;2.17;;
65130;SDS011;51709;54.912;8.316;2023-12-20T22:18:51;10.30;;;2.10;;
65130;SDS011;51709;54.912;8.316;2023-12-20T22:24:12;13.48;;;2.67;;
65130;SDS011;51709;54.912;8.316;2023-12-20T22:29:33;8.18;;;1.45;;
65130;SDS011;51709;54.912;8.316;2023-12-20T22:34:53;12.95;;;2.10;;
65130;SDS011;51709;54.912;8.316;2023-12-20T22:40:16;13.63;;;2.72;;
65130;SDS011;51709;54.912;8.316;2023-12-20T22:45:37;10.55;;;1.92;;
65130;SDS011;51709;54.912;8.316;2023-12-20T22:51:01;9.90;;;1.67;;
65130;SDS011;51709;54.912;8.316;2023-12-20T22:56:23;13.15;;;1.52;;
65130;SDS011;51709;54.912;8.316;2023-12-20T23:01:45;14.63;;;2.05;;
65130;SDS011;51709;54.912;8.316;2023-12-20T23:07:05;10.00;;;1.60;;
65130;SDS011;51709;54.912;8.316;2023-12-20T23:12:26;7.97;;;1.33;;
65130;SDS011;51709;54.912;8.316;2023-12-20T23:17:47;4.57;;;0.93;;
65130;SDS011;51709;54.912;8.316;2023-12-20T23:23:09;3.10;;;0.88;;
65130;SDS011;51709;54.912;8.316;2023-12-20T23:28:30;4.22;;;0.65;;
65130;SDS011;51709;54.912;8.316;2023-12-20T23:33:51;1.83;;;0.65;;
65130;SDS011;51709;54.912;8.316;2023-12-20T23:39:12;9.65;;;1.15;;
65130;SDS011;51709;54.912;8.316;2023-12-20T23:44:32;4.88;;;0.85;;
65130;SDS011;51709;54.912;8.316;2023-12-20T23:49:53;14.85;;;1.63;;
65130;SDS011;51709;54.912;8.316;2023-12-20T23:55:13;11.55;;;1.23;;
